createdAt,value
2017-11-18T00:00:10.944Z,3.57
2017-11-18T00:01:10.913Z,3.50
2017-11-18T00:02:10.872Z,3.31
2017-11-18T00:03:10.817Z,3.34
2017-11-18T00:04:10.762Z,3.25
2017-11-18T00:05:10.723Z,3.27
2017-11-18T00:06:10.692Z,3.21
2017-11-18T00:07:10.640Z,3.16
2017-11-18T00:08:10.588Z,3.12
2017-11-18T00:09:10.542Z,2.98
2017-11-18T00:10:10.500Z,2.91
2017-11-18T00:11:10.506Z,2.94
2017-11-18T00:12:10.401Z,2.84
2017-11-18T00:13:10.483Z,3.02
2017-11-18T00:14:10.315Z,3.10
2017-11-18T00:15:10.287Z,3.12
2017-11-18T00:16:10.225Z,3.31
2017-11-18T00:17:10.211Z,3.33
2017-11-18T00:18:10.136Z,3.34
2017-11-18T00:19:10.086Z,3.28
2017-11-18T00:20:10.055Z,3.20
2017-11-18T00:21:10.002Z,3.12
2017-11-18T00:22:09.968Z,3.12
2017-11-18T00:23:09.910Z,2.98
2017-11-18T00:24:09.864Z,3.06
2017-11-18T00:25:09.817Z,2.97
2017-11-18T00:26:09.774Z,2.98
2017-11-18T00:27:09.821Z,3.13
2017-11-18T00:28:09.682Z,3.13
2017-11-18T00:29:09.641Z,3.13
2017-11-18T00:30:09.590Z,3.10
2017-11-18T00:31:09.546Z,3.13
2017-11-18T00:32:09.499Z,3.09
2017-11-18T00:33:09.438Z,3.20
2017-11-18T00:34:09.414Z,3.23
2017-11-18T00:35:09.369Z,3.39
2017-11-18T00:36:09.324Z,3.39
2017-11-18T00:37:09.282Z,3.30
2017-11-18T00:38:09.233Z,3.33
2017-11-18T00:39:09.178Z,3.30
2017-11-18T00:40:09.148Z,3.34
2017-11-18T00:41:09.086Z,3.36
2017-11-18T00:42:09.055Z,3.39
2017-11-18T00:43:09.001Z,3.50
2017-11-18T00:44:08.986Z,3.46
2017-11-18T00:45:08.909Z,3.57
2017-11-18T00:46:08.863Z,3.57
2017-11-18T00:47:08.812Z,3.58
2017-11-18T00:48:08.767Z,3.60
2017-11-18T00:49:08.721Z,3.54
2017-11-18T00:50:08.686Z,3.52
2017-11-18T00:51:08.640Z,3.46
2017-11-18T00:52:08.586Z,3.44
2017-11-18T00:53:08.550Z,3.40
2017-11-18T00:54:08.504Z,3.50
2017-11-18T00:55:08.447Z,3.50
2017-11-18T00:56:08.425Z,3.49
2017-11-18T00:57:08.361Z,3.49
2017-11-18T00:58:08.316Z,3.36
2017-11-18T00:59:08.294Z,3.40
2017-11-18T01:00:08.224Z,3.39
2017-11-18T01:01:08.179Z,3.42
2017-11-18T01:02:08.128Z,3.47
2017-11-18T01:03:08.088Z,3.47
2017-11-18T01:04:08.048Z,3.47
2017-11-18T01:05:07.998Z,3.43
2017-11-18T01:06:07.959Z,3.49
2017-11-18T01:07:07.907Z,3.60
2017-11-18T01:08:07.862Z,3.65
2017-11-18T01:09:07.822Z,3.67
2017-11-18T01:10:07.786Z,3.62
2017-11-18T01:11:07.739Z,3.62
2017-11-18T01:12:07.686Z,3.70
2017-11-18T01:13:07.645Z,3.62
2017-11-18T01:14:07.599Z,3.71
2017-11-18T01:15:07.549Z,3.71
2017-11-18T01:16:07.597Z,3.75
2017-11-18T01:17:07.462Z,3.75
2017-11-18T01:18:07.429Z,3.71
2017-11-18T01:19:07.371Z,3.70
2017-11-18T01:20:07.324Z,3.67
2017-11-18T01:21:07.291Z,3.68
2017-11-18T01:22:07.244Z,3.64
2017-11-18T01:23:07.184Z,3.65
2017-11-18T01:24:07.150Z,3.61
2017-11-18T01:25:07.093Z,3.62
2017-11-18T01:26:07.098Z,3.60
2017-11-18T01:27:07.007Z,3.62
2017-11-18T01:28:06.981Z,3.54
2017-11-18T01:29:06.919Z,3.33
2017-11-18T01:30:06.878Z,3.13
2017-11-18T01:31:06.833Z,3.07
2017-11-18T01:32:06.803Z,3.28
2017-11-18T01:33:06.744Z,3.30
2017-11-18T01:34:06.715Z,3.30
2017-11-18T01:35:06.655Z,3.30
2017-11-18T01:36:06.663Z,3.21
2017-11-18T01:37:06.553Z,3.10
2017-11-18T01:38:06.513Z,3.05
2017-11-18T01:39:06.455Z,3.05
2017-11-18T01:40:06.420Z,3.05
2017-11-18T01:41:06.390Z,3.09
2017-11-18T01:42:06.336Z,3.05
2017-11-18T01:43:06.293Z,2.91
2017-11-18T01:44:06.248Z,2.87
2017-11-18T01:45:06.196Z,2.84
2017-11-18T01:46:06.171Z,2.76
2017-11-18T01:47:06.098Z,2.81
2017-11-18T01:48:06.064Z,2.74
2017-11-18T01:49:06.008Z,2.63
2017-11-18T01:50:05.962Z,2.44
2017-11-18T01:51:05.917Z,2.49
2017-11-18T01:52:05.866Z,2.49
2017-11-18T01:53:05.820Z,2.40
2017-11-18T01:54:05.786Z,2.30
2017-11-18T01:55:05.725Z,2.31
2017-11-18T01:56:05.678Z,2.40
2017-11-18T01:57:05.652Z,2.41
2017-11-18T01:58:05.589Z,2.55
2017-11-18T01:59:05.566Z,2.55
2017-11-18T02:00:05.513Z,2.63
2017-11-18T02:01:05.465Z,2.70
2017-11-18T02:02:05.408Z,2.71
2017-11-18T02:03:05.365Z,2.70
2017-11-18T02:04:05.311Z,2.64
2017-11-18T02:05:05.269Z,2.64
2017-11-18T02:06:05.231Z,2.70
2017-11-18T02:07:05.190Z,2.61
2017-11-18T02:08:05.949Z,2.71
2017-11-18T02:09:05.134Z,2.74
2017-11-18T02:10:05.045Z,2.74
2017-11-18T02:11:05.005Z,2.74
2017-11-18T02:12:04.948Z,2.82
2017-11-18T02:13:32.494Z,2.76
2017-11-18T02:14:04.883Z,2.67
2017-11-18T02:15:04.833Z,2.63
2017-11-18T02:16:04.791Z,2.67
2017-11-18T02:17:04.793Z,2.66
2017-11-18T02:18:04.781Z,2.71
2017-11-18T02:19:04.712Z,2.74
2017-11-18T02:20:04.587Z,2.74
2017-11-18T02:21:04.561Z,2.85
2017-11-18T02:22:04.492Z,2.81
2017-11-18T02:23:25.431Z,2.85
2017-11-18T02:24:04.405Z,2.92
2017-11-18T02:25:04.349Z,2.85
2017-11-18T02:26:04.304Z,2.94
2017-11-18T02:27:04.266Z,3.00
2017-11-18T02:28:04.219Z,2.97
2017-11-18T02:29:04.168Z,3.03
2017-11-18T02:30:04.129Z,3.02
2017-11-18T02:31:04.076Z,3.12
2017-11-18T02:32:04.033Z,3.12
2017-11-18T02:33:03.982Z,3.21
2017-11-18T02:34:03.945Z,3.27
2017-11-18T02:35:03.892Z,3.24
2017-11-18T02:36:03.855Z,3.31
2017-11-18T02:37:03.819Z,3.36
2017-11-18T02:38:03.762Z,3.34
2017-11-18T02:39:03.709Z,3.31
2017-11-18T02:40:03.672Z,3.31
2017-11-18T02:41:03.623Z,3.34
2017-11-18T02:42:03.588Z,3.31
2017-11-18T02:43:03.535Z,3.31
2017-11-18T02:44:03.489Z,3.33
2017-11-18T02:45:03.442Z,3.33
2017-11-18T02:46:03.431Z,3.30
2017-11-18T02:47:03.353Z,3.28
2017-11-18T02:48:03.309Z,3.33
2017-11-18T02:49:03.248Z,3.36
2017-11-18T02:50:03.261Z,3.43
2017-11-18T02:51:03.158Z,3.36
2017-11-18T02:52:03.128Z,3.34
2017-11-18T02:53:03.085Z,3.34
2017-11-18T02:54:03.045Z,3.33
2017-11-18T02:55:02.991Z,3.42
2017-11-18T02:56:02.991Z,3.47
2017-11-18T02:57:02.888Z,3.43
2017-11-18T02:58:02.976Z,3.39
2017-11-18T02:59:02.806Z,3.40
2017-11-18T03:00:02.764Z,3.34
2017-11-18T03:01:02.713Z,3.30
2017-11-18T03:02:02.671Z,3.36
2017-11-18T03:03:02.613Z,3.34
2017-11-18T03:04:02.563Z,3.46
2017-11-18T03:05:02.528Z,3.31
2017-11-18T03:06:02.475Z,3.47
2017-11-18T03:07:02.438Z,3.44
2017-11-18T03:08:02.384Z,3.33
2017-11-18T03:09:02.352Z,3.50
2017-11-18T03:10:02.300Z,3.49
2017-11-18T03:11:02.253Z,3.50
2017-11-18T03:12:02.213Z,3.40
2017-11-18T03:13:02.168Z,3.46
2017-11-18T03:14:02.113Z,3.49
2017-11-18T03:15:02.083Z,3.49
2017-11-18T03:16:02.023Z,3.36
2017-11-18T03:17:01.995Z,3.54
2017-11-18T03:18:01.942Z,3.50
2017-11-18T03:19:01.895Z,3.50
2017-11-18T03:20:01.840Z,3.50
2017-11-18T03:21:01.806Z,3.43
2017-11-18T03:22:01.754Z,3.46
2017-11-18T03:23:01.719Z,3.52
2017-11-18T03:24:03.496Z,3.44
2017-11-18T03:25:01.621Z,3.53
2017-11-18T03:26:01.574Z,3.44
2017-11-18T03:27:01.559Z,3.44
2017-11-18T03:28:01.477Z,3.60
2017-11-18T03:29:01.446Z,3.57
2017-11-18T03:30:01.398Z,3.43
2017-11-18T03:31:01.346Z,3.47
2017-11-18T03:32:01.294Z,3.58
2017-11-18T03:33:01.262Z,3.53
2017-11-18T03:34:01.210Z,3.58
2017-11-18T03:35:01.185Z,3.50
2017-11-18T03:36:01.134Z,3.46
2017-11-18T03:37:01.076Z,3.44
2017-11-18T03:38:01.026Z,3.34
2017-11-18T03:39:01.012Z,3.52
2017-11-18T03:40:00.943Z,3.31
2017-11-18T03:41:01.046Z,3.30
2017-11-18T03:42:00.857Z,3.33
2017-11-18T03:43:00.852Z,3.31
2017-11-18T03:44:00.760Z,3.40
2017-11-18T03:45:00.716Z,3.33
2017-11-18T03:46:00.661Z,3.31
2017-11-18T03:47:00.639Z,3.33
2017-11-18T03:48:00.597Z,3.28
2017-11-18T03:49:00.542Z,3.33
2017-11-18T03:50:00.508Z,3.23
2017-11-18T03:51:00.444Z,3.24
2017-11-18T03:52:00.397Z,3.23
2017-11-18T03:53:00.371Z,3.21
2017-11-18T03:54:00.306Z,3.27
2017-11-18T03:55:00.269Z,3.20
2017-11-18T03:56:00.213Z,3.12
2017-11-18T03:57:00.175Z,3.12
2017-11-18T03:58:00.128Z,3.15
2017-11-18T03:59:00.087Z,3.16
2017-11-18T04:00:00.041Z,3.05
2017-11-18T04:01:00.019Z,3.09
2017-11-18T04:01:59.946Z,3.06
2017-11-18T04:02:59.903Z,2.98
2017-11-18T04:03:59.855Z,3.00
2017-11-18T04:04:59.814Z,2.89
2017-11-18T04:05:59.772Z,3.03
2017-11-18T04:06:59.728Z,3.00
2017-11-18T04:07:59.681Z,2.89
2017-11-18T04:08:59.679Z,2.91
2017-11-18T04:09:59.591Z,2.92
2017-11-18T04:10:59.532Z,2.84
2017-11-18T04:11:59.500Z,2.89
2017-11-18T04:12:59.438Z,2.91
2017-11-18T04:13:59.411Z,2.87
2017-11-18T04:14:59.355Z,2.92
2017-11-18T04:15:59.320Z,2.88
2017-11-18T04:16:59.264Z,2.89
2017-11-18T04:17:59.237Z,2.89
2017-11-18T04:18:59.175Z,2.89
2017-11-18T04:19:59.130Z,2.92
2017-11-18T04:20:59.084Z,2.89
2017-11-18T04:21:59.044Z,2.88
2017-11-18T04:22:58.990Z,2.89
2017-11-18T04:23:58.957Z,2.94
2017-11-18T04:24:58.907Z,2.89
2017-11-18T04:25:58.865Z,2.94
2017-11-18T04:26:58.807Z,2.87
2017-11-18T04:27:58.758Z,2.89
2017-11-18T04:28:58.723Z,2.84
2017-11-18T04:29:58.680Z,2.85
2017-11-18T04:30:58.636Z,2.82
2017-11-18T04:31:58.584Z,2.88
2017-11-18T04:32:58.564Z,2.87
2017-11-18T04:33:58.496Z,2.81
2017-11-18T04:34:58.448Z,2.82
2017-11-18T04:35:58.452Z,2.84
2017-11-18T04:36:58.365Z,2.79
2017-11-18T04:37:58.329Z,2.77
2017-11-18T04:38:58.295Z,2.81
2017-11-18T04:39:58.240Z,2.79
2017-11-18T04:40:58.184Z,2.74
2017-11-18T04:41:58.167Z,2.82
2017-11-18T04:42:58.097Z,2.79
2017-11-18T04:43:58.050Z,2.81
2017-11-18T04:44:57.999Z,2.87
2017-11-18T04:45:57.969Z,2.85
2017-11-18T04:46:57.912Z,2.82
2017-11-18T04:47:57.880Z,2.84
2017-11-18T04:48:57.806Z,2.84
2017-11-18T04:49:57.788Z,2.81
2017-11-18T04:50:57.709Z,2.81
2017-11-18T04:51:57.793Z,2.94
2017-11-18T04:52:57.628Z,2.85
2017-11-18T04:53:57.581Z,2.89
2017-11-18T04:54:57.537Z,2.87
2017-11-18T04:55:57.496Z,2.92
2017-11-18T04:56:57.444Z,2.88
2017-11-18T04:57:57.387Z,2.88
2017-11-18T04:58:57.354Z,2.94
2017-11-18T04:59:57.305Z,2.91
2017-11-18T05:00:57.253Z,3.00
2017-11-18T05:01:57.254Z,2.92
2017-11-18T05:02:57.168Z,2.94
2017-11-18T05:03:57.123Z,2.94
2017-11-18T05:04:57.080Z,2.92
2017-11-18T05:05:57.022Z,2.89
2017-11-18T05:06:57.007Z,2.92
2017-11-18T05:07:56.934Z,2.94
2017-11-18T05:08:56.888Z,2.92
2017-11-18T05:09:56.852Z,2.89
2017-11-18T05:10:56.828Z,2.89
2017-11-18T05:11:56.764Z,2.91
2017-11-18T05:12:56.708Z,2.92
2017-11-18T05:13:56.665Z,2.92
2017-11-18T05:14:56.625Z,2.85
2017-11-18T05:15:56.567Z,2.88
2017-11-18T05:16:56.540Z,2.85
2017-11-18T05:17:56.487Z,2.79
2017-11-18T05:18:56.445Z,2.82
2017-11-18T05:19:56.392Z,2.73
2017-11-18T05:20:56.347Z,2.77
2017-11-18T05:21:56.312Z,2.69
2017-11-18T05:22:56.276Z,2.67
2017-11-18T05:23:56.218Z,2.67
2017-11-18T05:24:56.168Z,2.66
2017-11-18T05:25:56.120Z,2.59
2017-11-18T05:26:56.119Z,2.61
2017-11-18T05:27:56.030Z,2.41
2017-11-18T05:28:55.985Z,2.51
2017-11-18T05:29:55.929Z,2.38
2017-11-18T05:30:55.896Z,2.37
2017-11-18T05:31:55.851Z,2.30
2017-11-18T05:32:55.827Z,2.27
2017-11-18T05:33:55.750Z,2.41
2017-11-18T05:34:55.713Z,2.28
2017-11-18T05:35:55.667Z,2.45
2017-11-18T05:36:55.639Z,2.37
2017-11-18T05:37:55.584Z,2.35
2017-11-18T05:38:55.518Z,2.38
2017-11-18T05:39:55.478Z,2.34
2017-11-18T05:40:55.450Z,2.27
2017-11-18T05:41:55.385Z,2.19
2017-11-18T05:42:55.340Z,2.20
2017-11-18T05:43:55.304Z,2.22
2017-11-18T05:44:55.252Z,1.94
2017-11-18T05:45:55.206Z,1.99
2017-11-18T05:46:55.149Z,2.12
2017-11-18T05:47:55.144Z,2.15
2017-11-18T05:48:55.062Z,2.08
2017-11-18T05:49:55.104Z,1.99
2017-11-18T05:50:54.960Z,1.98
2017-11-18T05:51:54.935Z,1.78
2017-11-18T05:52:54.871Z,1.87
2017-11-18T05:53:54.840Z,1.89
2017-11-18T05:54:54.794Z,1.97
2017-11-18T05:55:54.774Z,2.02
2017-11-18T05:56:54.709Z,2.01
2017-11-18T05:57:54.657Z,1.99
2017-11-18T05:58:54.609Z,1.97
2017-11-18T05:59:54.554Z,1.94
2017-11-18T06:00:54.520Z,1.85
2017-11-18T06:01:54.467Z,1.85
2017-11-18T06:02:54.416Z,1.82
2017-11-18T06:03:54.375Z,1.79
2017-11-18T06:04:54.315Z,1.79
2017-11-18T06:05:54.317Z,1.80
2017-11-18T06:06:54.226Z,1.90
2017-11-18T06:07:54.254Z,1.82
2017-11-18T06:08:54.133Z,1.97
2017-11-18T06:09:54.106Z,1.91
2017-11-18T06:10:54.045Z,1.82
2017-11-18T06:11:53.995Z,1.80
2017-11-18T06:12:53.948Z,1.87
2017-11-18T06:13:53.939Z,1.76
2017-11-18T06:14:53.942Z,1.80
2017-11-18T06:15:54.484Z,1.79
2017-11-18T06:16:53.895Z,1.73
2017-11-18T06:17:53.768Z,1.80
2017-11-18T06:18:53.762Z,1.76
2017-11-18T06:19:53.730Z,1.75
2017-11-18T06:20:53.651Z,1.71
2017-11-18T06:21:53.535Z,1.64
2017-11-18T06:22:53.500Z,1.71
2017-11-18T06:23:53.443Z,1.79
2017-11-18T06:24:53.429Z,1.80
2017-11-18T06:25:53.351Z,1.78
2017-11-18T06:26:53.312Z,1.80
2017-11-18T06:27:53.276Z,1.75
2017-11-18T06:28:53.229Z,1.78
2017-11-18T06:29:53.166Z,1.76
2017-11-18T06:30:53.123Z,1.71
2017-11-18T06:31:53.063Z,1.76
2017-11-18T06:32:53.080Z,1.87
2017-11-18T06:33:52.974Z,1.72
2017-11-18T06:34:52.934Z,1.72
2017-11-18T06:35:52.964Z,1.73
2017-11-18T06:36:52.815Z,1.68
2017-11-18T06:37:52.792Z,1.64
2017-11-18T06:38:52.726Z,1.55
2017-11-18T06:39:52.791Z,1.43
2017-11-18T06:40:52.715Z,1.40
2017-11-18T06:41:52.607Z,1.42
2017-11-18T06:42:52.549Z,1.39
2017-11-18T06:43:52.507Z,1.43
2017-11-18T06:44:52.450Z,1.47
2017-11-18T06:45:52.407Z,1.39
2017-11-18T06:46:52.359Z,1.36
2017-11-18T06:47:52.355Z,1.21
2017-11-18T06:48:52.278Z,1.14
2017-11-18T06:49:52.234Z,1.03
2017-11-18T06:50:52.179Z,1.07
2017-11-18T06:51:52.151Z,1.06
2017-11-18T06:52:52.100Z,1.06
2017-11-18T06:53:52.038Z,1.12
2017-11-18T06:54:52.014Z,1.39
2017-11-18T06:55:51.960Z,1.42
2017-11-18T06:56:51.915Z,1.32
2017-11-18T06:57:51.868Z,1.15
2017-11-18T06:58:51.816Z,1.14
2017-11-18T06:59:51.752Z,1.18
2017-11-18T07:00:51.716Z,1.10
2017-11-18T07:01:51.658Z,1.06
2017-11-18T07:02:54.316Z,1.06
2017-11-18T07:03:51.557Z,1.19
2017-11-18T07:04:51.539Z,1.33
2017-11-18T07:05:51.489Z,1.37
2017-11-18T07:06:51.448Z,1.57
2017-11-18T07:07:51.385Z,1.46
2017-11-18T07:08:51.356Z,1.40
2017-11-18T07:09:51.301Z,1.36
2017-11-18T07:10:51.416Z,1.33
2017-11-18T07:11:51.198Z,1.26
2017-11-18T07:12:51.308Z,1.16
2017-11-18T07:13:51.112Z,1.21
2017-11-18T07:14:51.056Z,1.08
2017-11-18T07:15:51.022Z,1.19
2017-11-18T07:16:50.990Z,1.22
2017-11-18T07:17:50.918Z,1.29
2017-11-18T07:18:50.900Z,1.39
2017-11-18T07:19:50.841Z,1.36
2017-11-18T07:20:50.784Z,1.33
2017-11-18T07:21:50.785Z,1.21
2017-11-18T07:22:50.687Z,1.19
2017-11-18T07:23:50.647Z,1.19
2017-11-18T07:24:50.592Z,1.22
2017-11-18T07:25:50.542Z,1.22
2017-11-18T07:26:50.496Z,1.14
2017-11-18T07:27:50.438Z,1.25
2017-11-18T07:28:50.400Z,1.19
2017-11-18T07:29:50.343Z,1.14
2017-11-18T07:30:50.353Z,1.06
2017-11-18T07:31:50.261Z,1.15
2017-11-18T07:32:50.203Z,1.26
2017-11-18T07:33:50.184Z,1.33
2017-11-18T07:34:50.129Z,1.34
2017-11-18T07:35:50.143Z,1.37
2017-11-18T07:36:50.056Z,1.21
2017-11-18T07:37:49.973Z,1.19
2017-11-18T07:38:49.943Z,1.16
2017-11-18T07:39:49.869Z,1.08
2017-11-18T07:40:49.842Z,1.08
2017-11-18T07:41:49.808Z,1.07
2017-11-18T07:42:49.781Z,1.10
2017-11-18T07:43:49.686Z,1.06
2017-11-18T07:44:49.708Z,1.10
2017-11-18T07:45:49.598Z,1.03
2017-11-18T07:46:49.538Z,1.06
2017-11-18T07:47:49.501Z,1.08
2017-11-18T07:48:49.462Z,1.10
2017-11-18T07:49:49.417Z,1.15
2017-11-18T07:50:49.367Z,1.07
2017-11-18T07:51:49.314Z,1.16
2017-11-18T07:52:49.273Z,1.10
2017-11-18T07:53:49.228Z,1.12
2017-11-18T07:54:49.200Z,1.08
2017-11-18T07:55:49.141Z,1.00
2017-11-18T07:56:49.093Z,1.08
2017-11-18T07:57:49.045Z,1.26
2017-11-18T07:58:49.011Z,1.26
2017-11-18T07:59:48.938Z,1.34
2017-11-18T08:00:48.901Z,1.15
2017-11-18T08:01:48.847Z,1.16
2017-11-18T08:02:48.803Z,1.29
2017-11-18T08:03:48.756Z,1.44
2017-11-18T08:04:48.707Z,1.36
2017-11-18T08:05:48.657Z,1.21
2017-11-18T08:06:48.629Z,1.29
2017-11-18T08:07:48.566Z,1.26
2017-11-18T08:08:48.519Z,1.46
2017-11-18T08:09:48.477Z,1.55
2017-11-18T08:10:48.427Z,1.47
2017-11-18T08:11:48.388Z,1.47
2017-11-18T08:12:48.332Z,1.54
2017-11-18T08:13:48.290Z,1.57
2017-11-18T08:14:48.243Z,1.68
2017-11-18T08:15:48.209Z,1.62
2017-11-18T08:16:48.136Z,1.71
2017-11-18T08:17:48.091Z,1.78
2017-11-18T08:18:48.073Z,1.94
2017-11-18T08:19:48.018Z,2.04
2017-11-18T08:20:47.953Z,1.99
2017-11-18T08:21:47.928Z,1.94
2017-11-18T08:22:47.865Z,1.99
2017-11-18T08:23:47.826Z,2.04
2017-11-18T08:24:47.779Z,2.17
2017-11-18T08:25:47.726Z,2.46
2017-11-18T08:26:47.695Z,2.73
2017-11-18T08:27:47.662Z,2.89
2017-11-18T08:28:47.583Z,2.77
2017-11-18T08:29:47.647Z,2.87
2017-11-18T08:30:47.498Z,3.06
2017-11-18T08:31:47.454Z,3.24
2017-11-18T08:32:47.411Z,3.80
2017-11-18T08:33:47.369Z,4.15
2017-11-18T08:34:47.313Z,4.61
2017-11-18T08:35:47.284Z,4.99
2017-11-18T08:36:47.245Z,5.32
2017-11-18T08:37:47.193Z,5.60
2017-11-18T08:38:47.149Z,5.96
2017-11-18T08:39:47.096Z,5.53
2017-11-18T08:40:47.057Z,5.59
2017-11-18T08:41:47.029Z,6.29
2017-11-18T08:42:46.984Z,6.28
2017-11-18T08:43:47.009Z,5.77
2017-11-18T08:44:46.884Z,5.73
2017-11-18T08:45:46.837Z,5.92
2017-11-18T08:46:46.797Z,6.11
2017-11-18T08:47:46.787Z,6.56
2017-11-18T08:48:46.706Z,6.47
2017-11-18T08:49:46.731Z,5.70
2017-11-18T08:50:46.662Z,5.16
2017-11-18T08:51:46.604Z,4.84
2017-11-18T08:52:46.564Z,4.79
2017-11-18T08:53:47.560Z,4.67
2017-11-18T08:54:46.607Z,4.54
2017-11-18T08:55:46.452Z,4.62
2017-11-18T08:56:46.398Z,4.61
2017-11-18T08:57:46.369Z,4.51
2017-11-18T08:58:46.343Z,4.51
2017-11-18T08:59:46.285Z,4.46
2017-11-18T09:00:46.255Z,4.65
2017-11-18T09:01:46.206Z,4.55
2017-11-18T09:02:46.142Z,4.43
2017-11-18T09:03:46.097Z,4.44
2017-11-18T09:04:46.063Z,4.40
2017-11-18T09:05:46.069Z,5.23
2017-11-18T09:06:45.993Z,6.06
2017-11-18T09:07:45.959Z,6.90
2017-11-18T09:08:45.945Z,7.37
2017-11-18T09:09:45.850Z,7.62
2017-11-18T09:10:45.849Z,8.15
2017-11-18T09:11:45.768Z,8.69
2017-11-18T09:12:45.753Z,8.45
2017-11-18T09:13:45.709Z,7.71
2017-11-18T09:14:46.499Z,7.08
2017-11-18T09:15:45.659Z,7.31
2017-11-18T09:16:45.585Z,8.32
2017-11-18T09:17:45.561Z,7.94
2017-11-18T09:18:45.502Z,7.55
2017-11-18T09:19:45.492Z,6.84
2017-11-18T09:20:45.423Z,6.22
2017-11-18T09:21:45.388Z,5.59
2017-11-18T09:22:45.389Z,5.63
2017-11-18T09:23:45.307Z,5.67
2017-11-18T09:24:45.280Z,5.71
2017-11-18T09:25:45.221Z,5.48
2017-11-18T09:26:45.204Z,5.34
2017-11-18T09:27:45.168Z,5.40
2017-11-18T09:28:45.111Z,5.17
2017-11-18T09:29:45.099Z,5.22
2017-11-18T09:30:54.374Z,5.23
2017-11-18T09:32:38.638Z,5.14
2017-11-18T09:33:38.498Z,5.04
2017-11-18T09:35:33.140Z,4.86
2017-11-18T09:36:33.057Z,4.80
2017-11-18T09:38:26.243Z,4.61
2017-11-18T09:39:25.969Z,4.58
2017-11-18T09:41:19.421Z,4.76
2017-11-18T09:42:19.341Z,4.86
2017-11-18T09:44:12.627Z,4.77
2017-11-18T09:45:12.099Z,4.75
2017-11-18T09:47:05.906Z,4.76
2017-11-18T09:48:05.906Z,4.77
2017-11-18T09:50:00.575Z,4.67
2017-11-18T09:51:00.415Z,4.59
2017-11-18T09:52:53.546Z,4.59
2017-11-18T09:53:53.326Z,4.57
2017-11-18T09:55:46.630Z,4.73
2017-11-18T09:56:46.419Z,4.75
2017-11-18T09:58:39.659Z,4.58
2017-11-18T09:59:39.572Z,4.72
2017-11-18T10:01:32.782Z,4.83
2017-11-18T10:02:32.535Z,4.83
2017-11-18T10:04:25.781Z,4.96
2017-11-18T10:05:25.727Z,5.01
2017-11-18T10:07:18.836Z,4.99
2017-11-18T10:08:18.649Z,4.92
2017-11-18T10:10:12.047Z,4.91
2017-11-18T10:11:11.878Z,4.92
2017-11-18T10:13:05.170Z,4.86
2017-11-18T10:14:04.911Z,4.86
2017-11-18T10:15:58.154Z,5.01
2017-11-18T10:16:57.990Z,5.04
2017-11-18T10:18:51.221Z,5.02
2017-11-18T10:19:51.076Z,5.04
2017-11-18T10:21:44.248Z,4.95
2017-11-18T10:22:44.115Z,4.94
2017-11-18T10:24:37.403Z,4.89
2017-11-18T10:25:37.206Z,4.83
2017-11-18T10:27:31.882Z,5.01
2017-11-18T10:28:31.830Z,4.95
2017-11-18T10:30:24.983Z,4.99
2017-11-18T10:31:24.862Z,5.01
2017-11-18T10:33:17.947Z,5.04
2017-11-18T10:34:17.991Z,4.98
2017-11-18T10:36:11.138Z,4.99
2017-11-18T10:37:11.491Z,4.91
2017-11-18T10:39:04.102Z,5.05
2017-11-18T10:40:04.076Z,5.07
2017-11-18T10:41:57.201Z,5.12
2017-11-18T10:42:57.133Z,4.99
2017-11-18T10:44:50.506Z,5.07
2017-11-18T10:45:50.997Z,5.01
2017-11-18T10:47:43.789Z,5.05
2017-11-18T10:48:43.563Z,5.02
2017-11-18T10:50:38.227Z,5.07
2017-11-18T10:51:38.062Z,5.01
2017-11-18T10:53:31.255Z,5.19
2017-11-18T10:54:31.160Z,5.12
2017-11-18T10:56:24.292Z,5.23
2017-11-18T10:57:24.749Z,5.28
2017-11-18T10:59:17.369Z,5.10
2017-11-18T11:00:17.256Z,5.10
2017-11-18T11:02:10.428Z,5.12
2017-11-18T11:03:10.335Z,5.13
2017-11-18T11:05:04.012Z,5.17
2017-11-18T11:06:03.920Z,5.31
2017-11-18T11:07:58.536Z,5.14
2017-11-18T11:08:58.544Z,5.22
2017-11-18T11:10:52.208Z,5.35
2017-11-18T11:11:51.514Z,5.27
2017-11-18T11:13:44.713Z,5.34
2017-11-18T11:14:44.651Z,5.27
2017-11-18T11:16:37.848Z,5.34
2017-11-18T11:17:38.181Z,5.34
2017-11-18T11:19:30.838Z,5.31
2017-11-18T11:20:30.725Z,5.23
2017-11-18T11:22:24.569Z,5.38
2017-11-18T11:23:23.734Z,5.45
2017-11-18T11:25:16.916Z,5.45
2017-11-18T11:26:17.345Z,5.22
2017-11-18T11:28:10.003Z,5.31
2017-11-18T11:29:10.454Z,5.27
2017-11-18T11:31:03.003Z,5.23
2017-11-18T11:32:03.415Z,5.40
2017-11-18T11:33:56.151Z,5.48
2017-11-18T11:34:56.048Z,5.30
2017-11-18T11:36:49.191Z,5.35
2017-11-18T11:37:49.058Z,5.32
2017-11-18T11:39:42.235Z,5.50
2017-11-18T11:40:42.130Z,5.34
2017-11-18T11:42:35.219Z,5.34
2017-11-18T11:43:35.262Z,5.30
2017-11-18T11:45:28.970Z,5.31
2017-11-18T11:46:28.589Z,5.28
2017-11-18T11:48:21.377Z,5.48
2017-11-18T11:49:21.355Z,5.50
2017-11-18T11:51:14.502Z,5.78
2017-11-18T11:52:14.851Z,5.78
2017-11-18T11:54:07.494Z,5.82
2017-11-18T11:55:07.300Z,5.73
2017-11-18T11:57:00.504Z,5.66
2017-11-18T11:58:00.876Z,5.57
2017-11-18T11:59:53.561Z,5.59
2017-11-18T12:00:53.472Z,5.55
2017-11-18T12:02:46.635Z,5.55
2017-11-18T12:03:46.528Z,5.49
2017-11-18T12:05:41.512Z,5.31
2017-11-18T12:06:41.167Z,5.41
2017-11-18T12:08:34.314Z,5.49
2017-11-18T12:09:34.093Z,5.34
2017-11-18T12:11:27.304Z,5.23
2017-11-18T12:12:27.632Z,5.17
2017-11-18T12:14:20.367Z,5.31
2017-11-18T12:15:20.320Z,5.13
2017-11-18T12:16:20.329Z,5.14
2017-11-18T12:17:20.261Z,5.20
2017-11-18T12:18:20.254Z,5.27
2017-11-18T12:19:20.197Z,5.27
2017-11-18T12:20:20.114Z,5.28
2017-11-18T12:21:20.083Z,5.32
2017-11-18T12:22:20.056Z,5.46
2017-11-18T12:23:20.033Z,5.38
2017-11-18T12:24:19.987Z,5.60
2017-11-18T12:25:19.937Z,5.75
2017-11-18T12:26:20.396Z,5.83
2017-11-18T12:27:19.859Z,5.86
2017-11-18T12:28:20.291Z,5.77
2017-11-18T12:29:19.869Z,5.73
2017-11-18T12:30:19.680Z,5.59
2017-11-18T12:31:19.602Z,5.66
2017-11-18T12:32:19.655Z,5.57
2017-11-18T12:33:19.555Z,5.46
2017-11-18T12:34:19.538Z,5.53
2017-11-18T12:35:19.368Z,5.53
2017-11-18T12:36:19.463Z,5.45
2017-11-18T12:37:19.370Z,5.41
2017-11-18T12:38:19.859Z,5.34
2017-11-18T12:39:19.301Z,5.34
2017-11-18T12:40:19.768Z,5.31
2017-11-18T12:41:19.214Z,5.31
2017-11-18T12:42:19.599Z,5.28
2017-11-18T12:43:19.118Z,5.30
2017-11-18T12:44:19.074Z,5.30
2017-11-18T12:45:19.046Z,5.13
2017-11-18T12:46:19.547Z,5.16
2017-11-18T12:47:18.988Z,5.13
2017-11-18T12:48:19.433Z,5.13
2017-11-18T12:49:18.875Z,5.12
2017-11-18T12:50:19.364Z,5.09
2017-11-18T12:51:19.306Z,5.16
2017-11-18T12:52:18.741Z,5.07
2017-11-18T12:53:18.749Z,5.10
2017-11-18T12:54:19.154Z,5.09
2017-11-18T12:55:19.112Z,5.14
2017-11-18T12:56:18.602Z,5.04
2017-11-18T12:57:18.532Z,5.01
2017-11-18T12:58:18.470Z,5.09
2017-11-18T12:59:18.457Z,5.07
2017-11-18T13:00:18.416Z,5.05
2017-11-18T13:01:18.310Z,5.13
2017-11-18T13:02:18.352Z,5.07
2017-11-18T13:03:19.310Z,5.01
2017-11-18T13:04:18.240Z,5.16
2017-11-18T13:05:18.695Z,5.14
2017-11-18T13:06:18.668Z,5.16
2017-11-18T13:07:18.116Z,5.13
2017-11-18T13:08:18.120Z,5.20
2017-11-18T13:09:18.571Z,5.22
2017-11-18T13:10:17.946Z,5.17
2017-11-18T13:11:17.949Z,5.28
2017-11-18T13:12:17.926Z,5.31
2017-11-18T13:13:17.869Z,5.23
2017-11-18T13:14:17.839Z,5.22
2017-11-18T13:15:17.772Z,5.14
2017-11-18T13:16:17.694Z,5.14
2017-11-18T13:17:17.680Z,5.14
2017-11-18T13:18:17.615Z,5.17
2017-11-18T13:19:18.126Z,5.02
2017-11-18T13:20:17.549Z,5.09
2017-11-18T13:21:17.538Z,5.07
2017-11-18T13:22:17.984Z,5.01
2017-11-18T13:23:17.961Z,5.04
2017-11-18T13:24:17.400Z,5.02
2017-11-18T13:25:17.343Z,5.07
2017-11-18T13:26:17.315Z,5.02
2017-11-18T13:27:17.222Z,4.99
2017-11-18T13:28:17.228Z,4.99
2017-11-18T13:29:17.166Z,4.99
2017-11-18T13:30:17.129Z,4.94
2017-11-18T13:31:17.033Z,4.95
2017-11-18T13:32:17.046Z,4.99
2017-11-18T13:33:16.949Z,4.99
2017-11-18T13:34:17.408Z,4.91
2017-11-18T13:35:16.928Z,4.95
2017-11-18T13:36:16.879Z,4.98
2017-11-18T13:37:16.777Z,4.95
2017-11-18T13:38:17.283Z,4.88
2017-11-18T13:39:16.741Z,4.95
2017-11-18T13:40:16.650Z,4.98
2017-11-18T13:41:16.665Z,4.91
2017-11-18T13:42:16.628Z,4.89
2017-11-18T13:43:16.514Z,4.86
2017-11-18T13:44:16.853Z,4.89
2017-11-18T13:45:16.792Z,4.76
2017-11-18T13:46:16.371Z,4.86
2017-11-18T13:47:16.385Z,4.79
2017-11-18T13:48:17.361Z,4.76
2017-11-18T13:49:17.069Z,4.83
2017-11-18T13:50:16.778Z,4.76
2017-11-18T13:51:16.455Z,4.88
2017-11-18T13:52:16.667Z,4.88
2017-11-18T13:53:16.201Z,4.76
2017-11-18T13:54:16.079Z,4.86
2017-11-18T13:55:16.069Z,4.72
2017-11-18T13:56:16.320Z,4.83
2017-11-18T13:57:15.930Z,4.70
2017-11-18T13:58:15.891Z,4.73
2017-11-18T13:59:16.362Z,4.69
2017-11-18T14:00:16.802Z,4.79
2017-11-18T14:01:16.155Z,4.73
2017-11-18T14:02:16.137Z,4.73
2017-11-18T14:03:15.812Z,4.84
2017-11-18T14:04:22.593Z,4.73
2017-11-18T14:05:28.901Z,4.76
2017-11-18T14:06:18.092Z,4.79
2017-11-18T14:07:17.584Z,4.80
2017-11-18T14:08:18.329Z,4.75